sensor_id;sensor_type;location;lat;lon;timestamp;P1;durP1;ratioP1;P2;durP2;ratioP2
9156;SDS011;4613;48.392;9.998;2022-09-09T00:06:31;1.03;;;0.90;;
9156;SDS011;4613;48.392;9.998;2022-09-09T00:17:16;0.80;;;0.80;;
9156;SDS011;4613;48.392;9.998;2022-09-09T00:19:55;0.97;;;0.97;;
9156;SDS011;4613;48.392;9.998;2022-09-09T00:22:31;0.90;;;0.90;;
9156;SDS011;4613;48.392;9.998;2022-09-09T00:25:14;0.87;;;0.87;;
9156;SDS011;4613;48.392;9.998;2022-09-09T00:27:52;0.80;;;0.80;;
9156;SDS011;4613;48.392;9.998;2022-09-09T00:30:31;1.57;;;1.17;;
9156;SDS011;4613;48.392;9.998;2022-09-09T00:33:10;0.90;;;0.90;;
9156;SDS011;4613;48.392;9.998;2022-09-09T00:35:47;0.80;;;0.80;;
9156;SDS011;4613;48.392;9.998;2022-09-09T00:38:35;0.80;;;0.80;;
9156;SDS011;4613;48.392;9.998;2022-09-09T00:41:14;0.87;;;0.87;;
9156;SDS011;4613;48.392;9.998;2022-09-09T00:52:46;1.03;;;1.03;;
9156;SDS011;4613;48.392;9.998;2022-09-09T00:55:45;1.00;;;0.90;;
9156;SDS011;4613;48.392;9.998;2022-09-09T01:05:20;0.90;;;0.90;;
9156;SDS011;4613;48.392;9.998;2022-09-09T01:08:24;0.83;;;0.83;;
9156;SDS011;4613;48.392;9.998;2022-09-09T01:11:07;1.17;;;1.07;;
9156;SDS011;4613;48.392;9.998;2022-09-09T01:13:46;0.90;;;0.90;;
9156;SDS011;4613;48.392;9.998;2022-09-09T01:16:24;0.97;;;0.97;;
9156;SDS011;4613;48.392;9.998;2022-09-09T01:18:56;0.90;;;0.90;;
9156;SDS011;4613;48.392;9.998;2022-09-09T01:21:36;0.80;;;0.80;;
9156;SDS011;4613;48.392;9.998;2022-09-09T01:24:30;0.80;;;0.80;;
9156;SDS011;4613;48.392;9.998;2022-09-09T01:27:48;1.40;;;1.10;;
9156;SDS011;4613;48.392;9.998;2022-09-09T01:30:21;1.30;;;1.10;;
9156;SDS011;4613;48.392;9.998;2022-09-09T01:32:54;1.20;;;1.10;;
9156;SDS011;4613;48.392;9.998;2022-09-09T01:38:22;1.37;;;1.27;;
9156;SDS011;4613;48.392;9.998;2022-09-09T01:40:56;1.87;;;0.90;;
9156;SDS011;4613;48.392;9.998;2022-09-09T01:43:36;0.90;;;0.90;;
9156;SDS011;4613;48.392;9.998;2022-09-09T01:46:08;1.23;;;1.13;;
9156;SDS011;4613;48.392;9.998;2022-09-09T01:48:40;0.80;;;0.80;;
9156;SDS011;4613;48.392;9.998;2022-09-09T01:51:14;0.97;;;0.97;;
9156;SDS011;4613;48.392;9.998;2022-09-09T01:53:46;1.00;;;1.00;;
9156;SDS011;4613;48.392;9.998;2022-09-09T01:56:40;1.20;;;1.07;;
9156;SDS011;4613;48.392;9.998;2022-09-09T01:59:41;2.00;;;1.40;;
9156;SDS011;4613;48.392;9.998;2022-09-09T02:08:11;1.27;;;1.07;;
9156;SDS011;4613;48.392;9.998;2022-09-09T02:11:07;1.30;;;1.20;;
9156;SDS011;4613;48.392;9.998;2022-09-09T02:13:47;1.20;;;1.00;;
9156;SDS011;4613;48.392;9.998;2022-09-09T02:16:27;0.90;;;0.90;;
9156;SDS011;4613;48.392;9.998;2022-09-09T02:21:51;1.40;;;1.30;;
9156;SDS011;4613;48.392;9.998;2022-09-09T02:24:25;1.13;;;1.13;;
9156;SDS011;4613;48.392;9.998;2022-09-09T02:27:11;1.00;;;1.00;;
9156;SDS011;4613;48.392;9.998;2022-09-09T02:29:44;1.53;;;1.27;;
9156;SDS011;4613;48.392;9.998;2022-09-09T02:32:19;1.13;;;1.10;;
9156;SDS011;4613;48.392;9.998;2022-09-09T02:34:58;0.90;;;0.90;;
9156;SDS011;4613;48.392;9.998;2022-09-09T02:37:38;1.30;;;1.10;;
9156;SDS011;4613;48.392;9.998;2022-09-09T02:40:11;1.43;;;1.13;;
9156;SDS011;4613;48.392;9.998;2022-09-09T02:42:48;1.03;;;0.93;;
9156;SDS011;4613;48.392;9.998;2022-09-09T02:45:25;0.90;;;0.90;;
9156;SDS011;4613;48.392;9.998;2022-09-09T02:50:34;1.40;;;1.30;;
9156;SDS011;4613;48.392;9.998;2022-09-09T02:55:48;0.90;;;0.90;;
9156;SDS011;4613;48.392;9.998;2022-09-09T02:58:27;1.27;;;1.13;;
9156;SDS011;4613;48.392;9.998;2022-09-09T03:01:06;1.00;;;1.00;;
9156;SDS011;4613;48.392;9.998;2022-09-09T03:03:39;1.70;;;1.37;;
9156;SDS011;4613;48.392;9.998;2022-09-09T03:06:17;1.20;;;1.10;;
9156;SDS011;4613;48.392;9.998;2022-09-09T03:08:52;4.00;;;3.47;;
9156;SDS011;4613;48.392;9.998;2022-09-09T03:11:29;5.80;;;3.87;;
9156;SDS011;4613;48.392;9.998;2022-09-09T03:14:00;1.73;;;1.53;;
9156;SDS011;4613;48.392;9.998;2022-09-09T03:16:34;1.20;;;1.10;;
9156;SDS011;4613;48.392;9.998;2022-09-09T03:19:08;0.97;;;0.97;;
9156;SDS011;4613;48.392;9.998;2022-09-09T03:21:39;1.13;;;1.10;;
9156;SDS011;4613;48.392;9.998;2022-09-09T03:24:10;0.87;;;0.87;;
9156;SDS011;4613;48.392;9.998;2022-09-09T03:26:42;0.80;;;0.80;;
9156;SDS011;4613;48.392;9.998;2022-09-09T03:29:18;0.93;;;0.93;;
9156;SDS011;4613;48.392;9.998;2022-09-09T03:31:49;0.70;;;0.70;;
9156;SDS011;4613;48.392;9.998;2022-09-09T03:34:21;1.00;;;1.00;;
9156;SDS011;4613;48.392;9.998;2022-09-09T03:36:53;2.27;;;1.03;;
9156;SDS011;4613;48.392;9.998;2022-09-09T03:39:23;0.80;;;0.80;;
9156;SDS011;4613;48.392;9.998;2022-09-09T03:41:54;1.10;;;1.10;;
9156;SDS011;4613;48.392;9.998;2022-09-09T03:44:27;1.30;;;0.90;;
9156;SDS011;4613;48.392;9.998;2022-09-09T03:46:58;0.83;;;0.83;;
9156;SDS011;4613;48.392;9.998;2022-09-09T03:49:31;0.80;;;0.80;;
9156;SDS011;4613;48.392;9.998;2022-09-09T03:52:02;0.77;;;0.77;;
9156;SDS011;4613;48.392;9.998;2022-09-09T03:54:33;1.27;;;1.10;;
9156;SDS011;4613;48.392;9.998;2022-09-09T03:57:04;0.87;;;0.87;;
9156;SDS011;4613;48.392;9.998;2022-09-09T03:59:35;0.93;;;0.93;;
9156;SDS011;4613;48.392;9.998;2022-09-09T04:02:07;1.07;;;1.07;;
9156;SDS011;4613;48.392;9.998;2022-09-09T04:04:39;1.20;;;1.10;;
9156;SDS011;4613;48.392;9.998;2022-09-09T04:07:10;0.90;;;0.90;;
9156;SDS011;4613;48.392;9.998;2022-09-09T04:09:43;1.00;;;1.00;;
9156;SDS011;4613;48.392;9.998;2022-09-09T04:12:15;0.90;;;0.90;;
9156;SDS011;4613;48.392;9.998;2022-09-09T04:14:48;0.90;;;0.90;;
9156;SDS011;4613;48.392;9.998;2022-09-09T04:17:20;1.10;;;1.00;;
9156;SDS011;4613;48.392;9.998;2022-09-09T04:19:52;1.63;;;1.13;;
9156;SDS011;4613;48.392;9.998;2022-09-09T04:22:23;0.97;;;0.97;;
9156;SDS011;4613;48.392;9.998;2022-09-09T04:24:54;1.17;;;1.07;;
9156;SDS011;4613;48.392;9.998;2022-09-09T04:27:25;1.00;;;1.00;;
9156;SDS011;4613;48.392;9.998;2022-09-09T04:29:57;1.10;;;1.00;;
9156;SDS011;4613;48.392;9.998;2022-09-09T04:32:32;0.93;;;0.93;;
9156;SDS011;4613;48.392;9.998;2022-09-09T04:35:07;1.00;;;1.00;;
9156;SDS011;4613;48.392;9.998;2022-09-09T04:37:39;0.90;;;0.90;;
9156;SDS011;4613;48.392;9.998;2022-09-09T04:40:10;1.93;;;1.00;;
9156;SDS011;4613;48.392;9.998;2022-09-09T04:42:41;0.80;;;0.80;;
9156;SDS011;4613;48.392;9.998;2022-09-09T04:45:16;1.50;;;1.40;;
9156;SDS011;4613;48.392;9.998;2022-09-09T04:47:49;0.80;;;0.80;;
9156;SDS011;4613;48.392;9.998;2022-09-09T04:50:20;1.00;;;1.00;;
9156;SDS011;4613;48.392;9.998;2022-09-09T04:52:51;1.00;;;1.00;;
9156;SDS011;4613;48.392;9.998;2022-09-09T04:55:23;0.90;;;0.90;;
9156;SDS011;4613;48.392;9.998;2022-09-09T04:57:54;1.13;;;1.00;;
9156;SDS011;4613;48.392;9.998;2022-09-09T05:00:25;1.37;;;0.90;;
9156;SDS011;4613;48.392;9.998;2022-09-09T05:02:56;1.10;;;1.00;;
9156;SDS011;4613;48.392;9.998;2022-09-09T05:05:28;1.30;;;1.20;;
9156;SDS011;4613;48.392;9.998;2022-09-09T05:08:05;1.37;;;1.07;;
9156;SDS011;4613;48.392;9.998;2022-09-09T05:10:38;1.00;;;1.00;;
9156;SDS011;4613;48.392;9.998;2022-09-09T05:13:11;1.13;;;1.10;;
9156;SDS011;4613;48.392;9.998;2022-09-09T05:15:42;0.90;;;0.90;;
9156;SDS011;4613;48.392;9.998;2022-09-09T05:18:21;0.97;;;0.97;;
9156;SDS011;4613;48.392;9.998;2022-09-09T05:20:58;1.37;;;1.23;;
9156;SDS011;4613;48.392;9.998;2022-09-09T05:23:31;1.90;;;1.23;;
9156;SDS011;4613;48.392;9.998;2022-09-09T05:26:04;1.80;;;1.43;;
9156;SDS011;4613;48.392;9.998;2022-09-09T05:28:35;1.30;;;1.20;;
9156;SDS011;4613;48.392;9.998;2022-09-09T05:31:07;1.03;;;1.03;;
9156;SDS011;4613;48.392;9.998;2022-09-09T05:33:43;1.07;;;1.07;;
9156;SDS011;4613;48.392;9.998;2022-09-09T05:36:19;1.50;;;1.17;;
9156;SDS011;4613;48.392;9.998;2022-09-09T05:38:54;1.57;;;1.33;;
9156;SDS011;4613;48.392;9.998;2022-09-09T05:41:26;1.13;;;1.07;;
9156;SDS011;4613;48.392;9.998;2022-09-09T05:44:00;1.70;;;1.30;;
9156;SDS011;4613;48.392;9.998;2022-09-09T05:46:32;1.90;;;1.30;;
9156;SDS011;4613;48.392;9.998;2022-09-09T05:49:04;2.03;;;1.63;;
9156;SDS011;4613;48.392;9.998;2022-09-09T05:51:37;1.37;;;1.20;;
9156;SDS011;4613;48.392;9.998;2022-09-09T05:54:12;1.57;;;1.47;;
9156;SDS011;4613;48.392;9.998;2022-09-09T05:56:49;2.90;;;1.60;;
9156;SDS011;4613;48.392;9.998;2022-09-09T05:59:21;2.43;;;1.73;;
9156;SDS011;4613;48.392;9.998;2022-09-09T06:01:56;3.00;;;1.90;;
9156;SDS011;4613;48.392;9.998;2022-09-09T06:04:38;1.47;;;1.37;;
9156;SDS011;4613;48.392;9.998;2022-09-09T06:07:09;1.50;;;1.40;;
9156;SDS011;4613;48.392;9.998;2022-09-09T06:09:40;1.37;;;1.27;;
9156;SDS011;4613;48.392;9.998;2022-09-09T06:12:11;1.37;;;1.20;;
9156;SDS011;4613;48.392;9.998;2022-09-09T06:14:43;1.87;;;1.40;;
9156;SDS011;4613;48.392;9.998;2022-09-09T06:17:14;1.50;;;1.40;;
9156;SDS011;4613;48.392;9.998;2022-09-09T06:19:45;1.50;;;1.20;;
9156;SDS011;4613;48.392;9.998;2022-09-09T06:22:16;1.37;;;1.27;;
9156;SDS011;4613;48.392;9.998;2022-09-09T06:24:47;1.83;;;1.40;;
9156;SDS011;4613;48.392;9.998;2022-09-09T06:27:21;1.43;;;1.33;;
9156;SDS011;4613;48.392;9.998;2022-09-09T06:29:52;1.33;;;1.23;;
9156;SDS011;4613;48.392;9.998;2022-09-09T06:32:22;1.57;;;1.47;;
9156;SDS011;4613;48.392;9.998;2022-09-09T06:34:54;1.50;;;1.40;;
9156;SDS011;4613;48.392;9.998;2022-09-09T06:37:25;1.50;;;1.40;;
9156;SDS011;4613;48.392;9.998;2022-09-09T06:39:57;1.50;;;1.40;;
9156;SDS011;4613;48.392;9.998;2022-09-09T06:42:28;1.20;;;1.10;;
9156;SDS011;4613;48.392;9.998;2022-09-09T06:45:08;1.40;;;1.30;;
9156;SDS011;4613;48.392;9.998;2022-09-09T06:47:48;1.00;;;1.00;;
9156;SDS011;4613;48.392;9.998;2022-09-09T06:50:19;1.00;;;1.00;;
9156;SDS011;4613;48.392;9.998;2022-09-09T06:52:52;1.10;;;1.10;;
9156;SDS011;4613;48.392;9.998;2022-09-09T06:55:23;1.30;;;1.17;;
9156;SDS011;4613;48.392;9.998;2022-09-09T06:57:55;1.37;;;1.27;;
9156;SDS011;4613;48.392;9.998;2022-09-09T07:00:27;1.13;;;1.13;;
9156;SDS011;4613;48.392;9.998;2022-09-09T07:03:01;1.40;;;1.30;;
9156;SDS011;4613;48.392;9.998;2022-09-09T07:05:32;2.70;;;1.13;;
9156;SDS011;4613;48.392;9.998;2022-09-09T07:08:03;0.90;;;0.90;;
9156;SDS011;4613;48.392;9.998;2022-09-09T07:10:34;0.87;;;0.87;;
9156;SDS011;4613;48.392;9.998;2022-09-09T07:13:06;0.90;;;0.90;;
9156;SDS011;4613;48.392;9.998;2022-09-09T07:15:37;1.00;;;1.00;;
9156;SDS011;4613;48.392;9.998;2022-09-09T07:18:09;1.00;;;1.00;;
9156;SDS011;4613;48.392;9.998;2022-09-09T07:20:40;1.50;;;0.97;;
9156;SDS011;4613;48.392;9.998;2022-09-09T07:23:11;1.00;;;1.00;;
9156;SDS011;4613;48.392;9.998;2022-09-09T07:25:45;2.00;;;0.90;;
9156;SDS011;4613;48.392;9.998;2022-09-09T07:28:20;0.93;;;0.93;;
9156;SDS011;4613;48.392;9.998;2022-09-09T07:30:59;1.10;;;1.00;;
9156;SDS011;4613;48.392;9.998;2022-09-09T07:33:35;1.20;;;1.10;;
9156;SDS011;4613;48.392;9.998;2022-09-09T07:36:07;1.23;;;1.13;;
9156;SDS011;4613;48.392;9.998;2022-09-09T07:38:43;1.33;;;1.23;;
9156;SDS011;4613;48.392;9.998;2022-09-09T07:41:19;1.17;;;1.17;;
9156;SDS011;4613;48.392;9.998;2022-09-09T07:44:12;1.13;;;1.13;;
9156;SDS011;4613;48.392;9.998;2022-09-09T07:46:44;1.10;;;1.10;;
9156;SDS011;4613;48.392;9.998;2022-09-09T07:49:19;1.43;;;1.33;;
9156;SDS011;4613;48.392;9.998;2022-09-09T07:51:51;1.30;;;1.20;;
9156;SDS011;4613;48.392;9.998;2022-09-09T07:54:22;1.20;;;1.10;;
9156;SDS011;4613;48.392;9.998;2022-09-09T07:56:55;1.00;;;1.00;;
9156;SDS011;4613;48.392;9.998;2022-09-09T07:59:29;0.93;;;0.93;;
9156;SDS011;4613;48.392;9.998;2022-09-09T08:02:01;1.00;;;1.00;;
9156;SDS011;4613;48.392;9.998;2022-09-09T08:04:35;1.00;;;1.00;;
9156;SDS011;4613;48.392;9.998;2022-09-09T08:07:07;1.00;;;1.00;;
9156;SDS011;4613;48.392;9.998;2022-09-09T08:09:44;1.10;;;1.10;;
9156;SDS011;4613;48.392;9.998;2022-09-09T08:12:23;1.23;;;1.10;;
9156;SDS011;4613;48.392;9.998;2022-09-09T08:14:55;1.37;;;1.30;;
9156;SDS011;4613;48.392;9.998;2022-09-09T08:17:27;0.90;;;0.90;;
9156;SDS011;4613;48.392;9.998;2022-09-09T08:20:01;1.17;;;1.10;;
9156;SDS011;4613;48.392;9.998;2022-09-09T08:22:36;0.80;;;0.80;;
9156;SDS011;4613;48.392;9.998;2022-09-09T08:25:08;1.23;;;1.13;;
9156;SDS011;4613;48.392;9.998;2022-09-09T08:27:42;1.77;;;1.10;;
9156;SDS011;4613;48.392;9.998;2022-09-09T08:30:13;1.40;;;1.30;;
9156;SDS011;4613;48.392;9.998;2022-09-09T08:32:44;1.07;;;1.07;;
9156;SDS011;4613;48.392;9.998;2022-09-09T08:35:16;1.00;;;1.00;;
9156;SDS011;4613;48.392;9.998;2022-09-09T08:37:48;1.00;;;1.00;;
9156;SDS011;4613;48.392;9.998;2022-09-09T08:40:26;1.20;;;1.20;;
9156;SDS011;4613;48.392;9.998;2022-09-09T08:43:00;1.20;;;1.10;;
9156;SDS011;4613;48.392;9.998;2022-09-09T08:45:50;1.10;;;1.10;;
9156;SDS011;4613;48.392;9.998;2022-09-09T08:51:29;0.93;;;0.93;;
9156;SDS011;4613;48.392;9.998;2022-09-09T08:54:03;0.90;;;0.90;;
9156;SDS011;4613;48.392;9.998;2022-09-09T08:56:36;1.13;;;1.13;;
9156;SDS011;4613;48.392;9.998;2022-09-09T08:59:07;1.00;;;1.00;;
9156;SDS011;4613;48.392;9.998;2022-09-09T09:10:49;1.33;;;0.80;;
9156;SDS011;4613;48.392;9.998;2022-09-09T09:16:00;1.00;;;1.00;;
9156;SDS011;4613;48.392;9.998;2022-09-09T09:18:37;1.20;;;1.10;;
9156;SDS011;4613;48.392;9.998;2022-09-09T09:27:59;0.97;;;0.90;;
9156;SDS011;4613;48.392;9.998;2022-09-09T09:31:03;0.90;;;0.90;;
9156;SDS011;4613;48.392;9.998;2022-09-09T09:33:49;0.80;;;0.80;;
9156;SDS011;4613;48.392;9.998;2022-09-09T09:36:32;0.90;;;0.90;;
9156;SDS011;4613;48.392;9.998;2022-09-09T09:39:22;0.90;;;0.90;;
9156;SDS011;4613;48.392;9.998;2022-09-09T09:41:55;0.80;;;0.80;;
9156;SDS011;4613;48.392;9.998;2022-09-09T09:44:29;0.87;;;0.87;;
9156;SDS011;4613;48.392;9.998;2022-09-09T09:47:17;0.70;;;0.70;;
9156;SDS011;4613;48.392;9.998;2022-09-09T09:49:58;0.77;;;0.77;;
9156;SDS011;4613;48.392;9.998;2022-09-09T09:52:37;0.70;;;0.70;;
9156;SDS011;4613;48.392;9.998;2022-09-09T09:55:13;0.60;;;0.60;;
9156;SDS011;4613;48.392;9.998;2022-09-09T09:57:46;2.07;;;1.47;;
9156;SDS011;4613;48.392;9.998;2022-09-09T10:00:19;0.70;;;0.70;;
9156;SDS011;4613;48.392;9.998;2022-09-09T10:03:12;0.73;;;0.73;;
9156;SDS011;4613;48.392;9.998;2022-09-09T10:05:50;0.87;;;0.87;;
9156;SDS011;4613;48.392;9.998;2022-09-09T10:08:27;1.07;;;1.00;;
9156;SDS011;4613;48.392;9.998;2022-09-09T10:16:45;0.80;;;0.80;;
9156;SDS011;4613;48.392;9.998;2022-09-09T10:19:37;0.80;;;0.80;;
9156;SDS011;4613;48.392;9.998;2022-09-09T10:28:04;0.70;;;0.70;;
9156;SDS011;4613;48.392;9.998;2022-09-09T10:31:10;0.70;;;0.70;;
9156;SDS011;4613;48.392;9.998;2022-09-09T10:36:46;0.60;;;0.60;;
9156;SDS011;4613;48.392;9.998;2022-09-09T10:39:38;0.70;;;0.70;;
9156;SDS011;4613;48.392;9.998;2022-09-09T10:42:13;0.80;;;0.80;;
9156;SDS011;4613;48.392;9.998;2022-09-09T10:44:52;0.60;;;0.60;;
9156;SDS011;4613;48.392;9.998;2022-09-09T10:53:35;0.90;;;0.90;;
9156;SDS011;4613;48.392;9.998;2022-09-09T10:56:13;1.07;;;1.00;;
9156;SDS011;4613;48.392;9.998;2022-09-09T10:58:56;0.60;;;0.60;;
9156;SDS011;4613;48.392;9.998;2022-09-09T11:01:43;0.80;;;0.80;;
9156;SDS011;4613;48.392;9.998;2022-09-09T11:04:23;0.90;;;0.90;;
9156;SDS011;4613;48.392;9.998;2022-09-09T11:07:02;0.70;;;0.70;;
9156;SDS011;4613;48.392;9.998;2022-09-09T11:09:41;0.60;;;0.60;;
9156;SDS011;4613;48.392;9.998;2022-09-09T11:12:19;0.70;;;0.70;;
9156;SDS011;4613;48.392;9.998;2022-09-09T11:14:55;0.63;;;0.63;;
9156;SDS011;4613;48.392;9.998;2022-09-09T11:17:42;0.93;;;0.60;;
9156;SDS011;4613;48.392;9.998;2022-09-09T11:20:25;0.60;;;0.60;;
9156;SDS011;4613;48.392;9.998;2022-09-09T11:22:59;0.67;;;0.67;;
9156;SDS011;4613;48.392;9.998;2022-09-09T11:25:35;0.53;;;0.53;;
9156;SDS011;4613;48.392;9.998;2022-09-09T11:34:13;0.53;;;0.53;;
9156;SDS011;4613;48.392;9.998;2022-09-09T11:44:43;0.53;;;0.53;;
9156;SDS011;4613;48.392;9.998;2022-09-09T11:47:17;0.60;;;0.60;;
9156;SDS011;4613;48.392;9.998;2022-09-09T11:50:27;0.50;;;0.50;;
9156;SDS011;4613;48.392;9.998;2022-09-09T11:53:19;0.97;;;0.70;;
9156;SDS011;4613;48.392;9.998;2022-09-09T11:56:03;0.50;;;0.50;;
9156;SDS011;4613;48.392;9.998;2022-09-09T11:58:41;0.50;;;0.50;;
9156;SDS011;4613;48.392;9.998;2022-09-09T12:01:27;0.57;;;0.57;;
9156;SDS011;4613;48.392;9.998;2022-09-09T12:04:05;0.60;;;0.60;;
9156;SDS011;4613;48.392;9.998;2022-09-09T12:06:52;0.50;;;0.50;;
9156;SDS011;4613;48.392;9.998;2022-09-09T12:09:43;0.63;;;0.63;;
9156;SDS011;4613;48.392;9.998;2022-09-09T12:12:32;0.57;;;0.57;;
9156;SDS011;4613;48.392;9.998;2022-09-09T12:17:42;0.50;;;0.50;;
9156;SDS011;4613;48.392;9.998;2022-09-09T12:31:29;0.43;;;0.43;;
9156;SDS011;4613;48.392;9.998;2022-09-09T12:40:22;0.60;;;0.60;;
9156;SDS011;4613;48.392;9.998;2022-09-09T12:42:55;0.50;;;0.50;;
9156;SDS011;4613;48.392;9.998;2022-09-09T12:45:27;0.50;;;0.50;;
9156;SDS011;4613;48.392;9.998;2022-09-09T12:48:03;0.67;;;0.50;;
9156;SDS011;4613;48.392;9.998;2022-09-09T12:50:43;0.50;;;0.50;;
9156;SDS011;4613;48.392;9.998;2022-09-09T12:53:24;0.60;;;0.60;;
9156;SDS011;4613;48.392;9.998;2022-09-09T12:56:01;0.40;;;0.40;;
9156;SDS011;4613;48.392;9.998;2022-09-09T12:58:44;0.60;;;0.60;;
9156;SDS011;4613;48.392;9.998;2022-09-09T13:01:20;0.60;;;0.60;;
9156;SDS011;4613;48.392;9.998;2022-09-09T13:03:52;0.97;;;0.77;;
9156;SDS011;4613;48.392;9.998;2022-09-09T13:06:30;0.57;;;0.57;;
9156;SDS011;4613;48.392;9.998;2022-09-09T13:09:03;0.60;;;0.60;;
9156;SDS011;4613;48.392;9.998;2022-09-09T13:14:25;0.63;;;0.63;;
9156;SDS011;4613;48.392;9.998;2022-09-09T13:17:15;0.50;;;0.50;;
9156;SDS011;4613;48.392;9.998;2022-09-09T13:19:52;0.77;;;0.60;;
9156;SDS011;4613;48.392;9.998;2022-09-09T13:27:50;0.60;;;0.60;;
9156;SDS011;4613;48.392;9.998;2022-09-09T13:30:34;0.50;;;0.50;;
9156;SDS011;4613;48.392;9.998;2022-09-09T13:35:49;0.50;;;0.50;;
9156;SDS011;4613;48.392;9.998;2022-09-09T13:38:24;0.80;;;0.80;;
9156;SDS011;4613;48.392;9.998;2022-09-09T13:40:59;0.50;;;0.50;;
9156;SDS011;4613;48.392;9.998;2022-09-09T13:43:36;0.50;;;0.50;;
9156;SDS011;4613;48.392;9.998;2022-09-09T13:51:42;0.57;;;0.57;;
9156;SDS011;4613;48.392;9.998;2022-09-09T13:54:18;0.60;;;0.60;;
9156;SDS011;4613;48.392;9.998;2022-09-09T13:56:50;0.60;;;0.60;;
9156;SDS011;4613;48.392;9.998;2022-09-09T13:59:21;0.67;;;0.67;;
9156;SDS011;4613;48.392;9.998;2022-09-09T14:01:54;0.70;;;0.70;;
9156;SDS011;4613;48.392;9.998;2022-09-09T14:04:25;0.70;;;0.70;;
9156;SDS011;4613;48.392;9.998;2022-09-09T14:06:56;0.60;;;0.60;;
9156;SDS011;4613;48.392;9.998;2022-09-09T14:09:27;0.67;;;0.67;;
9156;SDS011;4613;48.392;9.998;2022-09-09T14:11:58;0.50;;;0.50;;
9156;SDS011;4613;48.392;9.998;2022-09-09T14:14:30;0.60;;;0.60;;
9156;SDS011;4613;48.392;9.998;2022-09-09T14:17:00;0.60;;;0.60;;
9156;SDS011;4613;48.392;9.998;2022-09-09T14:19:32;0.67;;;0.67;;
9156;SDS011;4613;48.392;9.998;2022-09-09T14:22:03;0.80;;;0.80;;
9156;SDS011;4613;48.392;9.998;2022-09-09T14:24:34;0.53;;;0.53;;
9156;SDS011;4613;48.392;9.998;2022-09-09T14:27:05;0.70;;;0.70;;
9156;SDS011;4613;48.392;9.998;2022-09-09T14:29:36;0.80;;;0.80;;
9156;SDS011;4613;48.392;9.998;2022-09-09T14:32:07;0.57;;;0.57;;
9156;SDS011;4613;48.392;9.998;2022-09-09T14:34:38;0.70;;;0.70;;
9156;SDS011;4613;48.392;9.998;2022-09-09T14:37:09;0.60;;;0.60;;
9156;SDS011;4613;48.392;9.998;2022-09-09T14:39:40;0.73;;;0.60;;
9156;SDS011;4613;48.392;9.998;2022-09-09T14:42:14;0.63;;;0.63;;
9156;SDS011;4613;48.392;9.998;2022-09-09T14:44:45;0.53;;;0.53;;
9156;SDS011;4613;48.392;9.998;2022-09-09T14:47:16;0.60;;;0.60;;
9156;SDS011;4613;48.392;9.998;2022-09-09T14:49:47;0.60;;;0.60;;
9156;SDS011;4613;48.392;9.998;2022-09-09T14:52:19;0.50;;;0.50;;
9156;SDS011;4613;48.392;9.998;2022-09-09T14:54:51;0.40;;;0.40;;
9156;SDS011;4613;48.392;9.998;2022-09-09T14:57:22;0.70;;;0.70;;
9156;SDS011;4613;48.392;9.998;2022-09-09T14:59:53;0.70;;;0.70;;
9156;SDS011;4613;48.392;9.998;2022-09-09T15:02:24;1.00;;;1.00;;
9156;SDS011;4613;48.392;9.998;2022-09-09T15:04:55;0.70;;;0.70;;
9156;SDS011;4613;48.392;9.998;2022-09-09T15:07:28;0.70;;;0.70;;
9156;SDS011;4613;48.392;9.998;2022-09-09T15:09:59;0.50;;;0.50;;
9156;SDS011;4613;48.392;9.998;2022-09-09T15:12:30;0.60;;;0.60;;
9156;SDS011;4613;48.392;9.998;2022-09-09T15:15:03;0.93;;;0.67;;
9156;SDS011;4613;48.392;9.998;2022-09-09T15:17:35;0.70;;;0.70;;
9156;SDS011;4613;48.392;9.998;2022-09-09T15:20:06;0.50;;;0.50;;
9156;SDS011;4613;48.392;9.998;2022-09-09T15:22:38;0.43;;;0.43;;
9156;SDS011;4613;48.392;9.998;2022-09-09T15:25:11;1.03;;;0.67;;
9156;SDS011;4613;48.392;9.998;2022-09-09T15:27:42;0.50;;;0.50;;
9156;SDS011;4613;48.392;9.998;2022-09-09T15:30:14;0.50;;;0.50;;
9156;SDS011;4613;48.392;9.998;2022-09-09T15:32:45;0.60;;;0.60;;
9156;SDS011;4613;48.392;9.998;2022-09-09T15:35:15;0.53;;;0.50;;
9156;SDS011;4613;48.392;9.998;2022-09-09T15:37:46;0.60;;;0.60;;
9156;SDS011;4613;48.392;9.998;2022-09-09T15:40:17;0.60;;;0.60;;
9156;SDS011;4613;48.392;9.998;2022-09-09T15:42:48;0.57;;;0.57;;
9156;SDS011;4613;48.392;9.998;2022-09-09T15:45:19;0.50;;;0.50;;
9156;SDS011;4613;48.392;9.998;2022-09-09T15:47:50;0.70;;;0.70;;
9156;SDS011;4613;48.392;9.998;2022-09-09T15:50:22;0.40;;;0.40;;
9156;SDS011;4613;48.392;9.998;2022-09-09T15:52:53;0.60;;;0.60;;
9156;SDS011;4613;48.392;9.998;2022-09-09T15:55:24;0.67;;;0.67;;
9156;SDS011;4613;48.392;9.998;2022-09-09T15:57:55;0.40;;;0.40;;
9156;SDS011;4613;48.392;9.998;2022-09-09T16:00:27;1.40;;;0.70;;
9156;SDS011;4613;48.392;9.998;2022-09-09T16:02:59;0.50;;;0.50;;
9156;SDS011;4613;48.392;9.998;2022-09-09T16:05:30;0.50;;;0.50;;
9156;SDS011;4613;48.392;9.998;2022-09-09T16:08:01;0.47;;;0.47;;
9156;SDS011;4613;48.392;9.998;2022-09-09T16:10:32;0.33;;;0.33;;
9156;SDS011;4613;48.392;9.998;2022-09-09T16:13:03;0.40;;;0.40;;
9156;SDS011;4613;48.392;9.998;2022-09-09T16:15:34;0.57;;;0.57;;
9156;SDS011;4613;48.392;9.998;2022-09-09T16:18:05;0.53;;;0.53;;
9156;SDS011;4613;48.392;9.998;2022-09-09T16:20:36;0.67;;;0.67;;
9156;SDS011;4613;48.392;9.998;2022-09-09T16:23:07;1.13;;;1.03;;
9156;SDS011;4613;48.392;9.998;2022-09-09T16:25:37;0.50;;;0.50;;
9156;SDS011;4613;48.392;9.998;2022-09-09T16:28:08;0.60;;;0.60;;
9156;SDS011;4613;48.392;9.998;2022-09-09T16:30:39;0.30;;;0.30;;
9156;SDS011;4613;48.392;9.998;2022-09-09T16:33:10;0.63;;;0.63;;
9156;SDS011;4613;48.392;9.998;2022-09-09T16:35:41;0.60;;;0.60;;
9156;SDS011;4613;48.392;9.998;2022-09-09T16:38:12;0.50;;;0.50;;
9156;SDS011;4613;48.392;9.998;2022-09-09T16:40:43;0.40;;;0.40;;
9156;SDS011;4613;48.392;9.998;2022-09-09T16:43:14;0.63;;;0.63;;
9156;SDS011;4613;48.392;9.998;2022-09-09T16:45:45;1.30;;;0.50;;
9156;SDS011;4613;48.392;9.998;2022-09-09T16:48:16;0.50;;;0.50;;
9156;SDS011;4613;48.392;9.998;2022-09-09T16:50:47;0.50;;;0.50;;
9156;SDS011;4613;48.392;9.998;2022-09-09T16:53:19;0.50;;;0.50;;
9156;SDS011;4613;48.392;9.998;2022-09-09T16:55:50;0.50;;;0.50;;
9156;SDS011;4613;48.392;9.998;2022-09-09T16:58:21;0.40;;;0.40;;
9156;SDS011;4613;48.392;9.998;2022-09-09T17:00:57;0.47;;;0.47;;
9156;SDS011;4613;48.392;9.998;2022-09-09T17:03:29;0.50;;;0.50;;
9156;SDS011;4613;48.392;9.998;2022-09-09T17:06:01;0.50;;;0.50;;
9156;SDS011;4613;48.392;9.998;2022-09-09T17:08:33;1.17;;;1.10;;
9156;SDS011;4613;48.392;9.998;2022-09-09T17:11:04;0.70;;;0.70;;
9156;SDS011;4613;48.392;9.998;2022-09-09T17:13:45;0.50;;;0.50;;
9156;SDS011;4613;48.392;9.998;2022-09-09T17:16:17;0.50;;;0.50;;
9156;SDS011;4613;48.392;9.998;2022-09-09T17:18:53;0.50;;;0.50;;
9156;SDS011;4613;48.392;9.998;2022-09-09T17:21:26;0.70;;;0.70;;
9156;SDS011;4613;48.392;9.998;2022-09-09T17:24:00;1.07;;;0.60;;
9156;SDS011;4613;48.392;9.998;2022-09-09T17:26:31;0.63;;;0.60;;
9156;SDS011;4613;48.392;9.998;2022-09-09T17:29:05;0.50;;;0.50;;
9156;SDS011;4613;48.392;9.998;2022-09-09T17:31:37;0.70;;;0.70;;
9156;SDS011;4613;48.392;9.998;2022-09-09T17:34:09;0.50;;;0.50;;
9156;SDS011;4613;48.392;9.998;2022-09-09T17:36:40;1.40;;;0.73;;
9156;SDS011;4613;48.392;9.998;2022-09-09T17:39:11;0.60;;;0.60;;
9156;SDS011;4613;48.392;9.998;2022-09-09T17:41:42;0.60;;;0.60;;
9156;SDS011;4613;48.392;9.998;2022-09-09T17:44:13;0.50;;;0.50;;
9156;SDS011;4613;48.392;9.998;2022-09-09T17:46:45;0.80;;;0.80;;
9156;SDS011;4613;48.392;9.998;2022-09-09T17:49:16;0.60;;;0.60;;
9156;SDS011;4613;48.392;9.998;2022-09-09T17:51:48;0.50;;;0.50;;
9156;SDS011;4613;48.392;9.998;2022-09-09T17:54:19;0.50;;;0.50;;
9156;SDS011;4613;48.392;9.998;2022-09-09T17:56:50;0.53;;;0.53;;
9156;SDS011;4613;48.392;9.998;2022-09-09T17:59:22;0.60;;;0.60;;
9156;SDS011;4613;48.392;9.998;2022-09-09T18:01:56;0.67;;;0.67;;
9156;SDS011;4613;48.392;9.998;2022-09-09T18:04:27;0.80;;;0.80;;
9156;SDS011;4613;48.392;9.998;2022-09-09T18:06:58;0.80;;;0.80;;
9156;SDS011;4613;48.392;9.998;2022-09-09T18:09:29;0.63;;;0.63;;
9156;SDS011;4613;48.392;9.998;2022-09-09T18:12:00;0.60;;;0.60;;
9156;SDS011;4613;48.392;9.998;2022-09-09T18:14:32;0.70;;;0.70;;
9156;SDS011;4613;48.392;9.998;2022-09-09T18:17:03;0.60;;;0.60;;
9156;SDS011;4613;48.392;9.998;2022-09-09T18:19:34;0.80;;;0.80;;
9156;SDS011;4613;48.392;9.998;2022-09-09T18:22:05;0.60;;;0.60;;